Airfield :
LOGIN :

Register | Disclaimer

   EN    FR    IT 

 










Legend :    VFR   Marginal VFR   IFR   Intensive IFR   Very Intensive IFR
Visi :
Ceiling :
>= 8 km
>= 3000ft
5 to 8 km
1000 to 3000 ft
1500m to 5 km
500 to 1000 ft
800 to 1500m
200 to 500 ft
< 800m
< 200 ft
Symbols :   Thunderstorms  Fog  Heavy snow  Heavy precipitations  Wind > 20 kt
SIGMETs :     Misc.  Thunderstorms  Icing  Turbulence  Mountain Waves  Volcanic Ashes






- Airport Elevation : 1768 ft


LEHC - Huesca Pirineos

CURRENT METAR :
  • 200800Z 24005KT 9999 FEW020 SCT050 14/13 Q1007

EXPIRED METARs :
  • 200730Z 26005KT 230V290 9999 FEW015 SCT060 14/13 Q1006
  • 200700Z VRB01KT 9999 FEW015 BKN050 14/13 Q1006
  • 200630Z AUTO VRB01KT 9999 BKN057 14/14 Q1006
  • 200600Z AUTO VRB02KT 9999 FEW050 14/13 Q1005
  • 200530Z AUTO VRB02KT 9000 FEW044 BKN056 BKN067 14/14 Q1005

TAF TAF LEHC
Valid from the 20 at 03:00 until the 21 at 03:00 UTC


200200Z 2003/2103 12007KT 9999 SCT050 TX17/2014Z TN09/2006Z
TEMPO 2003/2007 4000 RA
BECMG 2005/2007 24010KT
BECMG 2015/2018 30007KT



MET'MAP, your aeronautical weather chart ! - Copyright ORBIFLY December 2007 - Disclaimer

ORBIFLY MET'MAP TEAM :

Programming & Development : Alexandra Zaïnal
Concept & Development : Baudouin d'Aumeries
Co-Development & Prog : Marc-Olivier Méhu
Technical & hardware support : Manuel Goepfert

Contact : metmap@orbifly.com




SOURCES & CREDITS :

   NOAA